MDPCMDLR

Guest
Details From MDPC - Punta Cana Intl
To MDLR - La Romana Casa De Campo Intl
Flight Number -
Tags generated
Created
Modified
Stats Distance 32 nm / 59 km
Max Altitude 4,000 ft / 1,219 m
Waypoints 4
Social Downloads 1
Likes 0
Share VATSIM

Download

Looking for another format? Having issues loading an existing format? Contact us
Advertisement - Login to hide

Notes

Basic altitude profile: - Ascent Rate: 2500ft/min - Ascent Speed: 250kts - Cruise Altitude: 35000ft - Cruise Speed: 420kts - Descent Rate: 1500ft/min - Descent Speed: 250kts Options: - Use NATs: yes - Use PACOTS: yes - Use low airways: yes - Use high airways: yes

Route

MDPC PNA W6 LRN MDLR

ID Type Via Altitude Latitude Longitude Leg Dist Tot Dist Heading (true) Name
O MDPC APT - 0 ft / 0 m 18.57057˚ -68.36613˚ - 0 nm - Punta Cana Intl
PNA DME - 300 ft / 91 m 18.56726˚ -68.38331˚ 0 nm 0 nm 258° / 258° PUNTA CANA VOR-DME
LRN VOR W6 (AWY-LO) 4,000 ft / 1,219 m 18.45389˚ -68.91194˚ 30 nm 31 nm 257° / 257° LA ROMANA VOR-DME
O MDLR APT - 0 ft / 0 m 18.45071˚ -68.91183˚ 0 nm 32 nm 178° / 178° La Romana Casa De Campo Intl

Altitude Profile

Advertisement - Login to hide

MDPC

Details ICAO MDPC (PUJ)
Name Punta Cana Intl
Region Dominican Republic
Timezone America/Santo_Domingo (UTC-4.0)
Stats Elevation 46 ft / 14 m (AMSL)
Location 18.570574° -68.366130°
Runways 2
Magnetic Variation 12.179° W

METAR

MDPC 110400Z 02005KT 9999 FEW020 25/22 Q1015 NOSIG

Decode

TAF

Not found

Departure Runways

ID Width Length Bearing (true) Bearing (mag) Surface Threshold Offset Overrun Length
08 148 ft / 45 m 10,110 ft / 3,082 m 74.20° 86.38° Asphalt 0 ft / 0 m 374 ft / 114 m
09 148 ft / 45 m 10,163 ft / 3,098 m 84.79° 96.97° Asphalt 0 ft / 0 m 374 ft / 114 m
26 148 ft / 45 m 10,110 ft / 3,082 m 254.21° 266.39° Asphalt 0 ft / 0 m 374 ft / 114 m
27 148 ft / 45 m 10,163 ft / 3,098 m 264.80° 276.98° Asphalt 0 ft / 0 m 374 ft / 114 m

MDLR

Details ICAO MDLR (LRM)
Name La Romana Casa De Campo Intl
Region Dominican Republic
Timezone America/Santo_Domingo (UTC-4.0)
Stats Elevation 238 ft / 73 m (AMSL)
Location 18.450713° -68.911834°
Runways 1
Magnetic Variation 11.908° W

METAR

MDLR 110300Z 00000KT 9999 FEW016 BKN300 20/20 Q1016

Decode

TAF

Not found

Destination Runways

ID Width Length Bearing (true) Bearing (mag) Surface Threshold Offset Overrun Length
11 148 ft / 45 m 9,666 ft / 2,946 m 97.07° 108.98° Concrete 0 ft / 0 m 200 ft / 61 m
29 148 ft / 45 m 9,666 ft / 2,946 m 277.08° 288.99° Concrete 0 ft / 0 m 200 ft / 61 m

Popular Alternatives